sensor_id;sensor_type;location;lat;lon;timestamp;pressure;altitude;pressure_sealevel;temperature;humidity
15932;BME280;8065;49.520;11.284;2023-04-07T00:01:09;97543.78;;;6.96;61.05
15932;BME280;8065;49.520;11.284;2023-04-07T00:03:36;97534.59;;;7.07;60.73
15932;BME280;8065;49.520;11.284;2023-04-07T00:06:05;97535.78;;;7.01;60.78
15932;BME280;8065;49.520;11.284;2023-04-07T00:08:31;97534.59;;;7.07;61.05
15932;BME280;8065;49.520;11.284;2023-04-07T00:10:59;97532.44;;;7.09;60.85
15932;BME280;8065;49.520;11.284;2023-04-07T00:13:25;97527.56;;;7.02;60.31
15932;BME280;8065;49.520;11.284;2023-04-07T00:15:53;97525.97;;;7.01;60.52
15932;BME280;8065;49.520;11.284;2023-04-07T00:18:19;97523.53;;;6.77;61.19
15932;BME280;8065;49.520;11.284;2023-04-07T00:20:46;97533.44;;;6.85;60.49
15932;BME280;8065;49.520;11.284;2023-04-07T00:23:12;97530.38;;;6.78;60.80
15932;BME280;8065;49.520;11.284;2023-04-07T00:25:39;97526.13;;;6.50;61.43
15932;BME280;8065;49.520;11.284;2023-04-07T00:28:07;97529.66;;;6.59;61.24
15932;BME280;8065;49.520;11.284;2023-04-07T00:30:33;97524.28;;;6.50;61.56
15932;BME280;8065;49.520;11.284;2023-04-07T00:33:00;97511.28;;;6.54;61.54
15932;BME280;8065;49.520;11.284;2023-04-07T00:35:26;97517.78;;;6.43;61.94
15932;BME280;8065;49.520;11.284;2023-04-07T00:37:53;97514.91;;;6.58;61.77
15932;BME280;8065;49.520;11.284;2023-04-07T00:40:19;97506.03;;;6.68;61.72
15932;BME280;8065;49.520;11.284;2023-04-07T00:42:46;97505.25;;;6.67;61.45
15932;BME280;8065;49.520;11.284;2023-04-07T00:45:13;97499.97;;;6.67;61.47
15932;BME280;8065;49.520;11.284;2023-04-07T00:47:40;97498.41;;;6.66;61.39
15932;BME280;8065;49.520;11.284;2023-04-07T00:50:07;97500.72;;;6.54;61.30
15932;BME280;8065;49.520;11.284;2023-04-07T00:52:34;97500.00;;;6.35;61.75
15932;BME280;8065;49.520;11.284;2023-04-07T00:55:01;97506.00;;;6.21;62.28
15932;BME280;8065;49.520;11.284;2023-04-07T00:57:28;97492.75;;;5.94;62.64
15932;BME280;8065;49.520;11.284;2023-04-07T00:59:54;97493.94;;;6.02;62.40
15932;BME280;8065;49.520;11.284;2023-04-07T01:02:28;97488.47;;;5.98;62.94
15932;BME280;8065;49.520;11.284;2023-04-07T01:05:04;97488.88;;;6.05;62.47
15932;BME280;8065;49.520;11.284;2023-04-07T01:07:35;97491.75;;;5.90;62.87
15932;BME280;8065;49.520;11.284;2023-04-07T01:10:08;97489.25;;;5.99;62.77
15932;BME280;8065;49.520;11.284;2023-04-07T01:12:43;97492.25;;;5.92;62.97
15932;BME280;8065;49.520;11.284;2023-04-07T01:15:11;97487.94;;;5.77;63.69
15932;BME280;8065;49.520;11.284;2023-04-07T01:17:42;97485.91;;;5.93;63.17
15932;BME280;8065;49.520;11.284;2023-04-07T01:20:13;97484.38;;;6.06;62.68
15932;BME280;8065;49.520;11.284;2023-04-07T01:22:44;97476.56;;;6.14;62.68
15932;BME280;8065;49.520;11.284;2023-04-07T01:25:22;97474.63;;;6.06;62.69
15932;BME280;8065;49.520;11.284;2023-04-07T01:27:59;97479.84;;;5.93;62.97
15932;BME280;8065;49.520;11.284;2023-04-07T01:30:38;97486.03;;;5.83;63.70
15932;BME280;8065;49.520;11.284;2023-04-07T01:33:06;97490.09;;;5.75;64.09
15932;BME280;8065;49.520;11.284;2023-04-07T01:35:36;97488.16;;;6.00;62.99
15932;BME280;8065;49.520;11.284;2023-04-07T01:38:03;97491.09;;;5.98;63.29
15932;BME280;8065;49.520;11.284;2023-04-07T01:40:32;97487.63;;;6.16;62.40
15932;BME280;8065;49.520;11.284;2023-04-07T01:43:00;97490.59;;;6.29;62.58
15932;BME280;8065;49.520;11.284;2023-04-07T01:45:27;97492.84;;;6.35;61.95
15932;BME280;8065;49.520;11.284;2023-04-07T01:47:57;97490.50;;;6.34;61.66
15932;BME280;8065;49.520;11.284;2023-04-07T01:50:25;97487.53;;;6.21;62.61
15932;BME280;8065;49.520;11.284;2023-04-07T01:52:52;97490.25;;;6.16;62.72
15932;BME280;8065;49.520;11.284;2023-04-07T01:55:20;97494.72;;;6.35;62.11
15932;BME280;8065;49.520;11.284;2023-04-07T01:57:47;97491.28;;;6.34;62.31
15932;BME280;8065;49.520;11.284;2023-04-07T02:00:13;97485.22;;;6.34;62.59
15932;BME280;8065;49.520;11.284;2023-04-07T02:02:43;97485.56;;;6.13;62.67
15932;BME280;8065;49.520;11.284;2023-04-07T02:05:14;97479.19;;;5.82;64.12
15932;BME280;8065;49.520;11.284;2023-04-07T02:07:47;97468.50;;;5.54;65.65
15932;BME280;8065;49.520;11.284;2023-04-07T02:10:16;97478.59;;;5.47;66.62
15932;BME280;8065;49.520;11.284;2023-04-07T02:12:46;97468.28;;;5.51;66.23
15932;BME280;8065;49.520;11.284;2023-04-07T02:15:14;97464.72;;;5.42;66.85
15932;BME280;8065;49.520;11.284;2023-04-07T02:17:43;97465.38;;;5.52;65.90
15932;BME280;8065;49.520;11.284;2023-04-07T02:20:13;97465.34;;;5.71;65.40
15932;BME280;8065;49.520;11.284;2023-04-07T02:22:40;97465.13;;;5.86;64.70
15932;BME280;8065;49.520;11.284;2023-04-07T02:25:22;97458.88;;;6.01;64.40
15932;BME280;8065;49.520;11.284;2023-04-07T02:27:49;97457.69;;;6.07;63.63
15932;BME280;8065;49.520;11.284;2023-04-07T02:30:15;97462.97;;;6.07;63.23
15932;BME280;8065;49.520;11.284;2023-04-07T02:32:42;97456.16;;;5.87;63.45
15932;BME280;8065;49.520;11.284;2023-04-07T02:35:09;97451.94;;;6.05;63.15
15932;BME280;8065;49.520;11.284;2023-04-07T02:37:37;97455.75;;;5.99;63.33
15932;BME280;8065;49.520;11.284;2023-04-07T02:40:04;97446.63;;;5.91;63.54
15932;BME280;8065;49.520;11.284;2023-04-07T02:42:31;97446.63;;;5.91;63.51
15932;BME280;8065;49.520;11.284;2023-04-07T02:44:57;97448.53;;;5.86;63.86
15932;BME280;8065;49.520;11.284;2023-04-07T02:47:25;97440.22;;;5.60;64.85
15932;BME280;8065;49.520;11.284;2023-04-07T02:49:51;97447.69;;;5.72;64.09
15932;BME280;8065;49.520;11.284;2023-04-07T02:52:17;97441.44;;;5.68;64.36
15932;BME280;8065;49.520;11.284;2023-04-07T02:54:45;97436.09;;;5.54;65.07
15932;BME280;8065;49.520;11.284;2023-04-07T02:57:12;97438.66;;;5.40;65.28
15932;BME280;8065;49.520;11.284;2023-04-07T02:59:38;97441.72;;;5.47;65.30
15932;BME280;8065;49.520;11.284;2023-04-07T03:02:05;97439.72;;;5.39;65.77
15932;BME280;8065;49.520;11.284;2023-04-07T03:04:33;97431.47;;;5.08;66.20
15932;BME280;8065;49.520;11.284;2023-04-07T03:06:59;97429.50;;;5.19;65.86
15932;BME280;8065;49.520;11.284;2023-04-07T03:09:26;97434.00;;;4.94;66.88
15932;BME280;8065;49.520;11.284;2023-04-07T03:11:54;97433.25;;;5.13;66.66
15932;BME280;8065;49.520;11.284;2023-04-07T03:14:20;97431.75;;;5.07;66.22
15932;BME280;8065;49.520;11.284;2023-04-07T03:16:47;97432.41;;;5.17;66.55
15932;BME280;8065;49.520;11.284;2023-04-07T03:19:13;97429.53;;;5.33;65.68
15932;BME280;8065;49.520;11.284;2023-04-07T03:21:40;97427.03;;;5.41;65.69
15932;BME280;8065;49.520;11.284;2023-04-07T03:24:07;97423.97;;;5.53;65.15
15932;BME280;8065;49.520;11.284;2023-04-07T03:26:33;97420.84;;;5.32;65.80
15932;BME280;8065;49.520;11.284;2023-04-07T03:29:01;97423.91;;;5.39;65.15
15932;BME280;8065;49.520;11.284;2023-04-07T03:31:28;97421.56;;;5.38;65.73
15932;BME280;8065;49.520;11.284;2023-04-07T03:33:55;97418.78;;;5.29;65.52
15932;BME280;8065;49.520;11.284;2023-04-07T03:36:21;97424.06;;;5.29;66.04
15932;BME280;8065;49.520;11.284;2023-04-07T03:38:48;97422.44;;;5.14;66.39
15932;BME280;8065;49.520;11.284;2023-04-07T03:41:15;97429.84;;;5.12;66.21
15932;BME280;8065;49.520;11.284;2023-04-07T03:43:41;97426.97;;;5.09;66.22
15932;BME280;8065;49.520;11.284;2023-04-07T03:46:09;97421.66;;;5.14;66.24
15932;BME280;8065;49.520;11.284;2023-04-07T03:48:36;97431.06;;;5.20;66.01
15932;BME280;8065;49.520;11.284;2023-04-07T03:51:02;97429.09;;;5.25;65.75
15932;BME280;8065;49.520;11.284;2023-04-07T03:53:29;97431.25;;;5.23;65.71
15932;BME280;8065;49.520;11.284;2023-04-07T03:55:55;97439.03;;;5.15;66.38
15932;BME280;8065;49.520;11.284;2023-04-07T03:58:21;97433.66;;;5.01;67.25
15932;BME280;8065;49.520;11.284;2023-04-07T04:00:48;97433.00;;;4.90;66.97
15932;BME280;8065;49.520;11.284;2023-04-07T04:03:16;97429.66;;;4.85;67.50
15932;BME280;8065;49.520;11.284;2023-04-07T04:05:42;97428.84;;;4.84;67.74
15932;BME280;8065;49.520;11.284;2023-04-07T04:08:09;97429.66;;;4.85;67.36
15932;BME280;8065;49.520;11.284;2023-04-07T04:10:35;97423.59;;;4.84;66.96
15932;BME280;8065;49.520;11.284;2023-04-07T04:13:02;97429.38;;;4.86;68.10
15932;BME280;8065;49.520;11.284;2023-04-07T04:15:30;97426.94;;;4.90;67.94
15932;BME280;8065;49.520;11.284;2023-04-07T04:17:57;97424.47;;;4.99;67.08
15932;BME280;8065;49.520;11.284;2023-04-07T04:20:25;97432.09;;;5.00;67.50
15932;BME280;8065;49.520;11.284;2023-04-07T04:22:51;97431.31;;;5.00;67.48
15932;BME280;8065;49.520;11.284;2023-04-07T04:25:18;97427.09;;;4.99;66.52
15932;BME280;8065;49.520;11.284;2023-04-07T04:27:45;97424.16;;;4.81;67.49
15932;BME280;8065;49.520;11.284;2023-04-07T04:30:12;97422.91;;;4.98;66.92
15932;BME280;8065;49.520;11.284;2023-04-07T04:32:38;97422.13;;;4.97;66.55
15932;BME280;8065;49.520;11.284;2023-04-07T04:35:05;97422.47;;;4.90;67.23
15932;BME280;8065;49.520;11.284;2023-04-07T04:37:33;97418.78;;;4.91;66.93
15932;BME280;8065;49.520;11.284;2023-04-07T04:39:59;97423.41;;;5.00;67.45
15932;BME280;8065;49.520;11.284;2023-04-07T04:42:26;97420.13;;;4.89;67.24
15932;BME280;8065;49.520;11.284;2023-04-07T04:44:52;97415.97;;;4.83;68.39
15932;BME280;8065;49.520;11.284;2023-04-07T04:47:19;97411.63;;;4.73;68.30
15932;BME280;8065;49.520;11.284;2023-04-07T04:49:45;97426.41;;;4.69;68.01
15932;BME280;8065;49.520;11.284;2023-04-07T04:52:11;97428.53;;;4.67;68.09
15932;BME280;8065;49.520;11.284;2023-04-07T04:54:39;97426.06;;;4.52;68.90
15932;BME280;8065;49.520;11.284;2023-04-07T04:57:06;97425.78;;;4.77;67.68
15932;BME280;8065;49.520;11.284;2023-04-07T04:59:32;97432.94;;;4.72;67.88
15932;BME280;8065;49.520;11.284;2023-04-07T05:01:59;97438.22;;;4.72;67.87
15932;BME280;8065;49.520;11.284;2023-04-07T05:04:26;97431.09;;;4.72;67.77
15932;BME280;8065;49.520;11.284;2023-04-07T05:06:53;97430.88;;;4.69;68.09
15932;BME280;8065;49.520;11.284;2023-04-07T05:09:19;97433.00;;;4.67;68.07
15932;BME280;8065;49.520;11.284;2023-04-07T05:11:47;97434.41;;;4.59;69.18
15932;BME280;8065;49.520;11.284;2023-04-07T05:14:13;97437.16;;;4.73;68.43
15932;BME280;8065;49.520;11.284;2023-04-07T05:16:40;97430.53;;;4.75;68.38
15932;BME280;8065;49.520;11.284;2023-04-07T05:19:06;97425.72;;;4.82;67.65
15932;BME280;8065;49.520;11.284;2023-04-07T05:21:33;97432.25;;;5.09;67.08
15932;BME280;8065;49.520;11.284;2023-04-07T05:23:59;97432.19;;;5.14;67.63
15932;BME280;8065;49.520;11.284;2023-04-07T05:26:26;97425.34;;;5.13;67.32
15932;BME280;8065;49.520;11.284;2023-04-07T05:28:53;97429.63;;;5.09;66.69
15932;BME280;8065;49.520;11.284;2023-04-07T05:31:20;97430.28;;;5.19;66.70
15932;BME280;8065;49.520;11.284;2023-04-07T05:33:46;97423.16;;;5.20;66.64
15932;BME280;8065;49.520;11.284;2023-04-07T05:36:13;97421.72;;;5.09;67.32
15932;BME280;8065;49.520;11.284;2023-04-07T05:38:39;97419.41;;;5.21;67.10
15932;BME280;8065;49.520;11.284;2023-04-07T05:41:06;97417.06;;;5.38;65.93
15932;BME280;8065;49.520;11.284;2023-04-07T05:43:32;97419.44;;;5.40;66.39
15932;BME280;8065;49.520;11.284;2023-04-07T05:46:00;97419.78;;;5.33;66.64
15932;BME280;8065;49.520;11.284;2023-04-07T05:48:26;97423.06;;;5.25;66.30
15932;BME280;8065;49.520;11.284;2023-04-07T05:50:53;97423.44;;;5.18;67.10
15932;BME280;8065;49.520;11.284;2023-04-07T05:53:19;97428.75;;;5.32;66.23
15932;BME280;8065;49.520;11.284;2023-04-07T05:55:46;97425.06;;;5.33;66.66
15932;BME280;8065;49.520;11.284;2023-04-07T05:58:13;97427.41;;;5.35;66.94
15932;BME280;8065;49.520;11.284;2023-04-07T06:00:40;97429.09;;;5.25;66.38
15932;BME280;8065;49.520;11.284;2023-04-07T06:03:08;97428.47;;;5.52;66.25
15932;BME280;8065;49.520;11.284;2023-04-07T06:05:34;97421.47;;;5.62;66.05
15932;BME280;8065;49.520;11.284;2023-04-07T06:08:01;97428.31;;;5.63;65.56
15932;BME280;8065;49.520;11.284;2023-04-07T06:10:27;97429.53;;;5.51;66.17
15932;BME280;8065;49.520;11.284;2023-04-07T06:12:54;97441.22;;;5.64;65.18
15932;BME280;8065;49.520;11.284;2023-04-07T06:15:20;97435.00;;;5.74;65.14
15932;BME280;8065;49.520;11.284;2023-04-07T06:17:47;97435.59;;;5.71;65.70
15932;BME280;8065;49.520;11.284;2023-04-07T06:20:14;97439.50;;;5.92;64.80
15932;BME280;8065;49.520;11.284;2023-04-07T06:22:41;97433.94;;;5.94;64.72
15932;BME280;8065;49.520;11.284;2023-04-07T06:25:08;97437.56;;;5.98;64.19
15932;BME280;8065;49.520;11.284;2023-04-07T06:27:35;97436.56;;;5.75;64.06
15932;BME280;8065;49.520;11.284;2023-04-07T06:30:01;97439.72;;;5.77;64.99
15932;BME280;8065;49.520;11.284;2023-04-07T06:32:28;97437.97;;;6.05;63.35
15932;BME280;8065;49.520;11.284;2023-04-07T06:34:54;97432.16;;;6.35;63.34
15932;BME280;8065;49.520;11.284;2023-04-07T06:37:22;97435.22;;;6.56;63.12
15932;BME280;8065;49.520;11.284;2023-04-07T06:39:50;97424.09;;;6.73;62.36
15932;BME280;8065;49.520;11.284;2023-04-07T06:42:16;97433.38;;;6.70;62.33
15932;BME280;8065;49.520;11.284;2023-04-07T06:44:43;97431.28;;;6.95;62.68
15932;BME280;8065;49.520;11.284;2023-04-07T06:47:09;97425.97;;;7.22;62.03
15932;BME280;8065;49.520;11.284;2023-04-07T06:49:36;97428.66;;;7.44;61.11
15932;BME280;8065;49.520;11.284;2023-04-07T06:52:03;97421.59;;;7.53;61.22
15932;BME280;8065;49.520;11.284;2023-04-07T06:54:31;97423.16;;;7.54;60.93
15932;BME280;8065;49.520;11.284;2023-04-07T06:56:57;97431.03;;;7.32;60.48
15932;BME280;8065;49.520;11.284;2023-04-07T06:59:25;97418.22;;;7.62;60.41
15932;BME280;8065;49.520;11.284;2023-04-07T07:01:52;97414.97;;;7.65;60.24
15932;BME280;8065;49.520;11.284;2023-04-07T07:04:18;97417.03;;;7.68;59.36
15932;BME280;8065;49.520;11.284;2023-04-07T07:06:45;97422.56;;;7.57;59.85
15932;BME280;8065;49.520;11.284;2023-04-07T07:09:11;97414.63;;;7.80;59.75
15932;BME280;8065;49.520;11.284;2023-04-07T07:11:39;97412.56;;;7.99;59.41
15932;BME280;8065;49.520;11.284;2023-04-07T07:14:05;97414.56;;;8.25;58.88
15932;BME280;8065;49.520;11.284;2023-04-07T07:16:32;97412.66;;;8.39;57.49
15932;BME280;8065;49.520;11.284;2023-04-07T07:18:58;97408.84;;;8.62;58.35
15932;BME280;8065;49.520;11.284;2023-04-07T07:21:25;97413.19;;;8.58;57.02
15932;BME280;8065;49.520;11.284;2023-04-07T07:23:52;97408.44;;;8.38;57.15
15932;BME280;8065;49.520;11.284;2023-04-07T07:26:18;97412.72;;;8.56;56.88
15932;BME280;8065;49.520;11.284;2023-04-07T07:28:47;97409.94;;;8.70;56.98
15932;BME280;8065;49.520;11.284;2023-04-07T07:31:13;97407.81;;;8.89;57.43
15932;BME280;8065;49.520;11.284;2023-04-07T07:33:41;97412.53;;;9.09;55.44
15932;BME280;8065;49.520;11.284;2023-04-07T07:36:08;97412.44;;;9.40;55.94
15932;BME280;8065;49.520;11.284;2023-04-07T07:38:34;97402.41;;;9.72;55.28
15932;BME280;8065;49.520;11.284;2023-04-07T07:41:01;97406.63;;;9.90;55.32
15932;BME280;8065;49.520;11.284;2023-04-07T07:43:28;97406.91;;;9.97;53.64
15932;BME280;8065;49.520;11.284;2023-04-07T07:45:55;97403.59;;;10.17;53.74
15932;BME280;8065;49.520;11.284;2023-04-07T07:48:22;97403.50;;;10.52;53.39
15932;BME280;8065;49.520;11.284;2023-04-07T07:50:49;97404.00;;;10.45;52.34
15932;BME280;8065;49.520;11.284;2023-04-07T07:53:16;97404.84;;;10.67;51.45
15932;BME280;8065;49.520;11.284;2023-04-07T07:55:44;97410.94;;;10.67;51.24
15932;BME280;8065;49.520;11.284;2023-04-07T07:58:10;97417.66;;;11.03;51.56
15932;BME280;8065;49.520;11.284;2023-04-07T08:00:37;97413.91;;;11.25;50.80
15932;BME280;8065;49.520;11.284;2023-04-07T08:03:04;97415.47;;;11.46;50.33
15932;BME280;8065;49.520;11.284;2023-04-07T08:05:31;97411.56;;;11.65;49.68
15932;BME280;8065;49.520;11.284;2023-04-07T08:07:57;97414.16;;;11.94;49.84
15932;BME280;8065;49.520;11.284;2023-04-07T08:10:24;97412.19;;;12.03;49.54
15932;BME280;8065;49.520;11.284;2023-04-07T08:12:50;97408.09;;;12.06;49.28
15932;BME280;8065;49.520;11.284;2023-04-07T08:15:17;97412.66;;;12.05;49.13
15932;BME280;8065;49.520;11.284;2023-04-07T08:17:43;97405.59;;;12.46;48.64
15932;BME280;8065;49.520;11.284;2023-04-07T08:20:11;97403.19;;;12.65;49.11
15932;BME280;8065;49.520;11.284;2023-04-07T08:22:38;97405.75;;;12.62;47.07
15932;BME280;8065;49.520;11.284;2023-04-07T08:25:04;97404.06;;;12.94;47.23
15932;BME280;8065;49.520;11.284;2023-04-07T08:27:31;97399.81;;;13.05;45.42
15932;BME280;8065;49.520;11.284;2023-04-07T08:29:58;97400.16;;;13.03;45.48
15932;BME280;8065;49.520;11.284;2023-04-07T08:32:33;97404.03;;;13.06;44.99
15932;BME280;8065;49.520;11.284;2023-04-07T08:34:59;97399.59;;;13.34;44.59
15932;BME280;8065;49.520;11.284;2023-04-07T08:37:27;97391.44;;;13.43;44.16
15932;BME280;8065;49.520;11.284;2023-04-07T08:39:54;97402.16;;;13.71;43.86
15932;BME280;8065;49.520;11.284;2023-04-07T08:42:22;97395.72;;;13.60;43.30
15932;BME280;8065;49.520;11.284;2023-04-07T08:44:53;97391.53;;;13.47;43.04
15932;BME280;8065;49.520;11.284;2023-04-07T08:47:21;97386.75;;;13.80;43.22
15932;BME280;8065;49.520;11.284;2023-04-07T08:49:51;97385.19;;;14.23;43.62
15932;BME280;8065;49.520;11.284;2023-04-07T08:52:21;97385.53;;;14.37;43.06
15932;BME280;8065;49.520;11.284;2023-04-07T08:54:49;97382.81;;;14.49;42.75
15932;BME280;8065;49.520;11.284;2023-04-07T08:57:17;97392.66;;;14.45;43.48
15932;BME280;8065;49.520;11.284;2023-04-07T08:59:44;97386.28;;;15.00;43.54
15932;BME280;8065;49.520;11.284;2023-04-07T09:02:13;97384.31;;;14.82;41.52
15932;BME280;8065;49.520;11.284;2023-04-07T09:04:42;97389.16;;;14.92;42.32
15932;BME280;8065;49.520;11.284;2023-04-07T09:07:08;97391.63;;;14.65;40.90
15932;BME280;8065;49.520;11.284;2023-04-07T09:09:35;97390.16;;;15.03;41.73
15932;BME280;8065;49.520;11.284;2023-04-07T09:12:03;97389.53;;;15.45;41.76
15932;BME280;8065;49.520;11.284;2023-04-07T09:14:29;97393.19;;;15.36;41.02
15932;BME280;8065;49.520;11.284;2023-04-07T09:16:56;97389.63;;;15.13;40.54
15932;BME280;8065;49.520;11.284;2023-04-07T09:19:26;97387.84;;;15.56;39.92
15932;BME280;8065;49.520;11.284;2023-04-07T09:21:52;97376.84;;;15.41;39.47
15932;BME280;8065;49.520;11.284;2023-04-07T09:24:23;97378.41;;;15.81;40.48
15932;BME280;8065;49.520;11.284;2023-04-07T09:26:54;97376.00;;;15.76;38.87
15932;BME280;8065;49.520;11.284;2023-04-07T09:29:34;97370.91;;;16.10;39.35
15932;BME280;8065;49.520;11.284;2023-04-07T09:32:02;97381.75;;;16.17;39.03
15932;BME280;8065;49.520;11.284;2023-04-07T09:34:30;97374.22;;;16.71;39.56
15932;BME280;8065;49.520;11.284;2023-04-07T09:36:57;97374.69;;;16.54;38.99
15932;BME280;8065;49.520;11.284;2023-04-07T09:39:24;97368.66;;;17.10;38.91
15932;BME280;8065;49.520;11.284;2023-04-07T09:41:51;97360.28;;;17.75;38.92
15932;BME280;8065;49.520;11.284;2023-04-07T09:44:18;97372.06;;;17.07;39.10
15932;BME280;8065;49.520;11.284;2023-04-07T09:46:50;97368.56;;;17.03;39.31
15932;BME280;8065;49.520;11.284;2023-04-07T09:49:17;97359.66;;;17.25;39.83
15932;BME280;8065;49.520;11.284;2023-04-07T09:51:55;97367.09;;;18.02;40.09
15932;BME280;8065;49.520;11.284;2023-04-07T09:54:31;97359.66;;;17.89;39.58
15932;BME280;8065;49.520;11.284;2023-04-07T09:56:59;97354.97;;;18.63;39.23
15932;BME280;8065;49.520;11.284;2023-04-07T09:59:27;97347.16;;;19.10;38.80
15932;BME280;8065;49.520;11.284;2023-04-07T10:01:55;97346.66;;;18.83;38.25
15932;BME280;8065;49.520;11.284;2023-04-07T10:04:22;97357.72;;;18.71;37.84
15932;BME280;8065;49.520;11.284;2023-04-07T10:06:49;97343.66;;;18.47;38.11
15932;BME280;8065;49.520;11.284;2023-04-07T10:09:16;97342.50;;;18.48;38.58
15932;BME280;8065;49.520;11.284;2023-04-07T10:11:43;97352.56;;;18.55;38.65
15932;BME280;8065;49.520;11.284;2023-04-07T10:14:10;97344.50;;;19.13;37.81
15932;BME280;8065;49.520;11.284;2023-04-07T10:16:37;97348.59;;;19.62;37.71
15932;BME280;8065;49.520;11.284;2023-04-07T10:19:05;97342.66;;;19.31;38.57
15932;BME280;8065;49.520;11.284;2023-04-07T10:21:34;97343.03;;;19.26;38.78
15932;BME280;8065;49.520;11.284;2023-04-07T10:24:10;97342.31;;;19.37;36.43
15932;BME280;8065;49.520;11.284;2023-04-07T10:26:46;97338.50;;;19.45;36.86
15932;BME280;8065;49.520;11.284;2023-04-07T10:29:14;97351.69;;;18.88;36.86
15932;BME280;8065;49.520;11.284;2023-04-07T10:31:41;97340.78;;;19.43;36.59
15932;BME280;8065;49.520;11.284;2023-04-07T10:34:09;97340.19;;;19.78;37.07
15932;BME280;8065;49.520;11.284;2023-04-07T10:37:10;97341.03;;;18.54;36.96
15932;BME280;8065;49.520;11.284;2023-04-07T10:39:38;97344.53;;;19.20;37.03
15932;BME280;8065;49.520;11.284;2023-04-07T10:42:05;97335.31;;;19.21;36.52
15932;BME280;8065;49.520;11.284;2023-04-07T10:44:45;97335.56;;;19.75;35.72
15932;BME280;8065;49.520;11.284;2023-04-07T10:47:12;97335.97;;;20.09;35.88
15932;BME280;8065;49.520;11.284;2023-04-07T10:53:05;97330.19;;;20.03;35.01
15932;BME280;8065;49.520;11.284;2023-04-07T10:55:35;97327.16;;;20.40;35.25
15932;BME280;8065;49.520;11.284;2023-04-07T10:58:23;97327.94;;;20.44;35.35
15932;BME280;8065;49.520;11.284;2023-04-07T11:03:58;97332.16;;;20.20;35.13
15932;BME280;8065;49.520;11.284;2023-04-07T11:06:25;97325.47;;;19.57;35.72
15932;BME280;8065;49.520;11.284;2023-04-07T11:08:53;97324.03;;;20.10;35.76
15932;BME280;8065;49.520;11.284;2023-04-07T11:11:35;97323.28;;;20.38;36.35
15932;BME280;8065;49.520;11.284;2023-04-07T11:14:02;97308.63;;;20.78;36.87
15932;BME280;8065;49.520;11.284;2023-04-07T11:16:37;97321.75;;;20.69;35.73
15932;BME280;8065;49.520;11.284;2023-04-07T11:19:05;97315.13;;;20.98;34.89
15932;BME280;8065;49.520;11.284;2023-04-07T11:21:31;97317.06;;;19.94;35.48
15932;BME280;8065;49.520;11.284;2023-04-07T11:23:59;97310.91;;;19.76;35.90
15932;BME280;8065;49.520;11.284;2023-04-07T11:26:26;97317.13;;;20.30;35.72
15932;BME280;8065;49.520;11.284;2023-04-07T11:28:54;97308.97;;;19.73;36.10
15932;BME280;8065;49.520;11.284;2023-04-07T11:31:22;97310.16;;;20.01;35.83
15932;BME280;8065;49.520;11.284;2023-04-07T11:33:51;97303.25;;;20.56;35.36
15932;BME280;8065;49.520;11.284;2023-04-07T11:36:25;97308.22;;;20.83;34.78
15932;BME280;8065;49.520;11.284;2023-04-07T11:38:52;97305.56;;;20.65;34.68
15932;BME280;8065;49.520;11.284;2023-04-07T11:41:21;97304.72;;;20.86;34.89
15932;BME280;8065;49.520;11.284;2023-04-07T11:43:47;97318.25;;;20.22;34.65
15932;BME280;8065;49.520;11.284;2023-04-07T11:46:16;97307.06;;;19.98;35.21
15932;BME280;8065;49.520;11.284;2023-04-07T11:48:44;97312.22;;;19.24;36.41
15932;BME280;8065;49.520;11.284;2023-04-07T11:51:15;97304.69;;;19.65;35.63
15932;BME280;8065;49.520;11.284;2023-04-07T11:53:42;97298.56;;;19.75;35.63
15932;BME280;8065;49.520;11.284;2023-04-07T11:56:11;97303.22;;;19.92;35.23
15932;BME280;8065;49.520;11.284;2023-04-07T11:58:47;97300.13;;;19.97;35.84
15932;BME280;8065;49.520;11.284;2023-04-07T12:01:14;97298.22;;;20.30;35.57
15932;BME280;8065;49.520;11.284;2023-04-07T12:03:54;97288.19;;;20.70;35.38
15932;BME280;8065;49.520;11.284;2023-04-07T12:06:26;97287.72;;;21.03;35.42
15932;BME280;8065;49.520;11.284;2023-04-07T12:08:53;97291.69;;;20.67;34.78
15932;BME280;8065;49.520;11.284;2023-04-07T12:11:19;97285.41;;;20.98;34.78
15932;BME280;8065;49.520;11.284;2023-04-07T12:13:48;97286.91;;;21.13;34.72
15932;BME280;8065;49.520;11.284;2023-04-07T12:16:14;97288.50;;;20.93;34.52
15932;BME280;8065;49.520;11.284;2023-04-07T12:18:42;97289.19;;;21.29;34.61
15932;BME280;8065;49.520;11.284;2023-04-07T12:21:08;97279.06;;;21.47;33.92
15932;BME280;8065;49.520;11.284;2023-04-07T12:23:35;97287.56;;;21.46;34.15
15932;BME280;8065;49.520;11.284;2023-04-07T12:26:02;97282.88;;;21.57;33.77
15932;BME280;8065;49.520;11.284;2023-04-07T12:28:28;97280.19;;;21.57;34.51
15932;BME280;8065;49.520;11.284;2023-04-07T12:30:56;97285.97;;;21.59;34.04
15932;BME280;8065;49.520;11.284;2023-04-07T12:33:23;97294.13;;;21.52;34.43
15932;BME280;8065;49.520;11.284;2023-04-07T12:35:49;97289.47;;;21.56;34.49
15932;BME280;8065;49.520;11.284;2023-04-07T12:38:16;97290.63;;;21.55;34.12
15932;BME280;8065;49.520;11.284;2023-04-07T12:40:43;97290.75;;;21.23;34.30
15932;BME280;8065;49.520;11.284;2023-04-07T12:43:09;97298.47;;;21.21;34.07
15932;BME280;8065;49.520;11.284;2023-04-07T12:45:36;97290.81;;;20.98;34.09
15932;BME280;8065;49.520;11.284;2023-04-07T12:48:04;97292.06;;;20.69;34.36
15932;BME280;8065;49.520;11.284;2023-04-07T12:50:30;97289.34;;;20.29;35.27
15932;BME280;8065;49.520;11.284;2023-04-07T12:52:57;97299.75;;;20.24;35.26
15932;BME280;8065;49.520;11.284;2023-04-07T12:55:27;97297.66;;;19.43;35.56
15932;BME280;8065;49.520;11.284;2023-04-07T12:57:54;97302.53;;;19.09;36.32
15932;BME280;8065;49.520;11.284;2023-04-07T13:00:21;97294.66;;;19.55;36.07
15932;BME280;8065;49.520;11.284;2023-04-07T13:02:47;97292.00;;;19.69;35.77
15932;BME280;8065;49.520;11.284;2023-04-07T13:05:16;97291.63;;;19.78;36.04
15932;BME280;8065;49.520;11.284;2023-04-07T13:07:42;97295.13;;;19.85;36.23
15932;BME280;8065;49.520;11.284;2023-04-07T13:10:09;97303.38;;;19.23;36.10
15932;BME280;8065;49.520;11.284;2023-04-07T13:12:36;97309.00;;;18.90;36.95
15932;BME280;8065;49.520;11.284;2023-04-07T13:15:04;97300.63;;;19.13;36.39
15932;BME280;8065;49.520;11.284;2023-04-07T13:17:31;97299.72;;;18.84;36.55